createdAt,value
2023-10-26T00:00:50.392Z,68.07
2023-10-26T00:01:52.680Z,68.09
2023-10-26T00:02:56.129Z,68.19
2023-10-26T00:03:58.772Z,68.18
2023-10-26T00:05:02.167Z,68.21
2023-10-26T00:06:06.092Z,68.27
2023-10-26T00:07:09.333Z,68.33
2023-10-26T00:08:11.548Z,68.29
2023-10-26T00:09:14.730Z,68.36
2023-10-26T00:10:17.250Z,68.40
2023-10-26T00:11:20.442Z,68.46
2023-10-26T00:12:22.806Z,68.46
2023-10-26T00:13:25.160Z,68.54
2023-10-26T00:14:28.397Z,68.56
2023-10-26T00:15:30.575Z,68.55
2023-10-26T00:16:33.782Z,68.50
2023-10-26T00:17:36.163Z,68.47
2023-10-26T00:18:39.456Z,68.53
2023-10-26T00:19:41.740Z,68.48
2023-10-26T00:20:46.580Z,68.54
2023-10-26T00:21:50.155Z,68.61
2023-10-26T00:22:53.301Z,68.61
2023-10-26T00:23:55.459Z,68.65
2023-10-26T00:24:58.657Z,68.55
2023-10-26T00:26:00.810Z,68.60
2023-10-26T00:27:04.093Z,68.70
2023-10-26T00:28:06.323Z,68.71
2023-10-26T00:29:09.501Z,68.64
2023-10-26T00:30:12.915Z,68.67
2023-10-26T00:31:16.277Z,68.67
2023-10-26T00:32:18.811Z,68.70
2023-10-26T00:33:22.070Z,68.74
2023-10-26T00:34:24.394Z,68.65
2023-10-26T00:35:27.604Z,68.67
2023-10-26T00:36:30.880Z,68.74
2023-10-26T00:37:35.460Z,68.73
2023-10-26T00:38:37.695Z,68.76
2023-10-26T00:39:40.899Z,68.79
2023-10-26T00:40:43.131Z,68.78
2023-10-26T00:41:46.263Z,68.87
2023-10-26T00:42:48.455Z,68.90
2023-10-26T00:43:52.694Z,68.96
2023-10-26T00:44:57.873Z,68.88
2023-10-26T00:46:01.351Z,68.93
2023-10-26T00:47:03.847Z,69.02
2023-10-26T00:48:08.137Z,69.10
2023-10-26T00:49:13.656Z,69.02
2023-10-26T00:50:17.087Z,69.06
2023-10-26T00:51:19.852Z,69.08
2023-10-26T00:52:24.239Z,69.11
2023-10-26T00:53:28.748Z,69.16
2023-10-26T00:54:32.155Z,69.22
2023-10-26T00:55:35.479Z,69.18
2023-10-26T00:56:38.249Z,69.17
2023-10-26T00:57:41.698Z,69.22
2023-10-26T00:58:44.360Z,69.28
2023-10-26T00:59:48.228Z,69.31
2023-10-26T01:00:51.081Z,69.28
2023-10-26T01:01:54.701Z,69.39
2023-10-26T01:02:57.075Z,69.41
2023-10-26T01:04:02.264Z,69.49
2023-10-26T01:05:05.197Z,69.50
2023-10-26T01:06:09.756Z,69.58
2023-10-26T01:07:11.975Z,69.76
2023-10-26T01:08:15.184Z,69.74
2023-10-26T01:09:19.094Z,69.78
2023-10-26T01:10:22.258Z,69.83
2023-10-26T01:11:24.644Z,69.86
2023-10-26T01:12:28.712Z,70.04
2023-10-26T01:13:31.787Z,70.08
2023-10-26T01:14:34.069Z,70.01
2023-10-26T01:15:37.313Z,70.02
2023-10-26T01:16:40.588Z,70.00
2023-10-26T01:17:43.864Z,70.15
2023-10-26T01:18:46.189Z,70.08
2023-10-26T01:19:50.051Z,70.25
2023-10-26T01:20:52.367Z,70.25
2023-10-26T01:21:57.523Z,70.15
2023-10-26T01:23:00.338Z,70.26
2023-10-26T01:24:03.560Z,70.23
2023-10-26T01:25:06.537Z,70.26
2023-10-26T01:26:09.594Z,70.20
2023-10-26T01:27:11.813Z,70.25
2023-10-26T01:28:15.044Z,70.27
2023-10-26T01:29:17.134Z,70.33
2023-10-26T01:30:19.369Z,70.32
2023-10-26T01:31:22.602Z,70.35
2023-10-26T01:32:27.521Z,70.33
2023-10-26T01:33:30.791Z,70.33
2023-10-26T01:34:33.094Z,70.38
2023-10-26T01:35:42.459Z,70.34
2023-10-26T01:36:44.806Z,70.41
2023-10-26T01:37:49.375Z,70.46
2023-10-26T01:38:51.566Z,70.43
2023-10-26T01:39:54.710Z,70.44
2023-10-26T01:40:56.863Z,70.48
2023-10-26T01:42:00.216Z,70.46
2023-10-26T01:43:02.411Z,70.48
2023-10-26T01:44:05.708Z,70.51
2023-10-26T01:45:09.670Z,70.55
2023-10-26T01:46:12.908Z,70.55
2023-10-26T01:47:15.100Z,70.57
2023-10-26T01:48:18.430Z,70.65
2023-10-26T01:49:20.861Z,70.67
2023-10-26T01:50:23.151Z,70.74
2023-10-26T01:51:26.414Z,70.75
2023-10-26T01:52:28.658Z,70.81
2023-10-26T01:53:33.267Z,70.88
2023-10-26T01:54:35.478Z,70.90
2023-10-26T01:55:38.694Z,70.96
2023-10-26T01:56:40.901Z,70.96
2023-10-26T01:57:44.054Z,71.00
2023-10-26T01:58:46.380Z,71.05
2023-10-26T01:59:49.547Z,71.09
2023-10-26T02:00:51.813Z,71.12
2023-10-26T02:01:55.028Z,71.14
2023-10-26T02:02:57.463Z,71.22
2023-10-26T02:04:00.731Z,71.29
2023-10-26T02:05:03.218Z,71.25
2023-10-26T02:06:07.424Z,71.34
2023-10-26T02:07:09.749Z,71.37
2023-10-26T02:08:12.962Z,71.38
2023-10-26T02:09:16.668Z,71.45
2023-10-26T02:10:20.181Z,71.46
2023-10-26T02:11:23.346Z,71.47
2023-10-26T02:12:26.119Z,71.56
2023-10-26T02:13:29.414Z,71.45
2023-10-26T02:14:31.603Z,71.63
2023-10-26T02:15:33.844Z,71.66
2023-10-26T02:16:37.073Z,71.66
2023-10-26T02:17:39.291Z,71.69
2023-10-26T02:18:44.265Z,71.66
2023-10-26T02:19:46.655Z,71.78
2023-10-26T02:20:49.943Z,71.89
2023-10-26T02:21:52.188Z,71.84
2023-10-26T02:22:55.395Z,71.84
2023-10-26T02:23:57.624Z,71.91
2023-10-26T02:25:02.235Z,71.98
2023-10-26T02:26:04.807Z,71.96
2023-10-26T02:27:08.049Z,71.96
2023-10-26T02:28:15.034Z,71.97
2023-10-26T02:29:18.297Z,72.05
2023-10-26T02:30:20.549Z,72.12
2023-10-26T02:31:23.825Z,72.07
2023-10-26T02:32:26.165Z,72.14
2023-10-26T02:33:29.449Z,72.22
2023-10-26T02:34:31.678Z,72.29
2023-10-26T02:35:33.934Z,72.33
2023-10-26T02:36:37.119Z,72.32
2023-10-26T02:37:39.644Z,72.36
2023-10-26T02:38:42.806Z,72.40
2023-10-26T02:39:45.127Z,72.43
2023-10-26T02:40:49.619Z,72.49
2023-10-26T02:41:51.919Z,72.56
2023-10-26T02:42:55.072Z,72.59
2023-10-26T02:43:57.307Z,72.55
2023-10-26T02:45:00.784Z,72.63
2023-10-26T02:46:05.831Z,72.63
2023-10-26T02:47:09.114Z,72.59
2023-10-26T02:48:11.357Z,72.66
2023-10-26T02:49:14.669Z,72.70
2023-10-26T02:50:16.988Z,72.73
2023-10-26T02:51:20.261Z,72.76
2023-10-26T02:52:22.534Z,72.75
2023-10-26T02:53:24.726Z,72.70
2023-10-26T02:54:28.604Z,72.78
2023-10-26T02:55:30.883Z,72.88
2023-10-26T02:56:35.446Z,72.84
2023-10-26T02:57:37.608Z,72.81
2023-10-26T02:58:40.755Z,72.83
2023-10-26T02:59:42.914Z,72.88
2023-10-26T03:00:45.133Z,72.93
2023-10-26T03:01:48.249Z,73.03
2023-10-26T03:02:50.530Z,73.04
2023-10-26T03:03:53.822Z,73.08
2023-10-26T03:04:56.071Z,73.10
2023-10-26T03:06:00.746Z,73.14
2023-10-26T03:07:02.934Z,73.15
2023-10-26T03:08:05.536Z,73.19
2023-10-26T03:09:10.351Z,73.24
2023-10-26T03:10:12.617Z,73.24
2023-10-26T03:11:15.787Z,73.32
2023-10-26T03:12:20.449Z,73.30
2023-10-26T03:13:23.677Z,73.32
2023-10-26T03:14:25.936Z,73.36
2023-10-26T03:15:29.241Z,73.42
2023-10-26T03:16:31.606Z,73.43
2023-10-26T03:17:34.868Z,73.45
2023-10-26T03:18:37.488Z,73.45
2023-10-26T03:19:40.662Z,73.45
2023-10-26T03:20:42.894Z,73.53
2023-10-26T03:21:46.073Z,73.50
2023-10-26T03:22:48.271Z,73.50
2023-10-26T03:23:53.861Z,73.35
2023-10-26T03:24:56.062Z,73.47
2023-10-26T03:26:01.130Z,73.56
2023-10-26T03:27:03.454Z,73.59
2023-10-26T03:28:08.045Z,73.62
2023-10-26T03:29:10.258Z,73.67
2023-10-26T03:30:13.920Z,73.62
2023-10-26T03:31:16.229Z,73.61
2023-10-26T03:32:18.456Z,73.64
2023-10-26T03:33:21.728Z,73.65
2023-10-26T03:34:23.974Z,73.70
2023-10-26T03:35:27.185Z,73.72
2023-10-26T03:36:29.378Z,73.73
2023-10-26T03:37:32.758Z,73.79
2023-10-26T03:38:34.914Z,73.82
2023-10-26T03:39:40.759Z,73.80
2023-10-26T03:40:42.937Z,73.82
2023-10-26T03:41:46.153Z,73.81
2023-10-26T03:42:48.318Z,73.75
2023-10-26T03:43:52.863Z,73.78
2023-10-26T03:44:55.149Z,73.83
2023-10-26T03:45:58.335Z,73.92
2023-10-26T03:47:00.834Z,73.91
2023-10-26T03:48:04.407Z,73.94
2023-10-26T03:49:06.667Z,73.79
2023-10-26T03:50:10.183Z,73.94
2023-10-26T03:51:12.418Z,73.89
2023-10-26T03:52:15.658Z,73.78
2023-10-26T03:53:17.904Z,73.78
2023-10-26T03:54:21.141Z,73.86
2023-10-26T03:55:23.557Z,73.93
2023-10-26T03:56:26.697Z,73.87
2023-10-26T03:57:28.880Z,73.98
2023-10-26T03:58:32.079Z,73.97
2023-10-26T03:59:35.579Z,74.02
2023-10-26T04:00:38.727Z,73.99
2023-10-26T04:01:40.983Z,74.04
2023-10-26T04:02:44.206Z,74.05
2023-10-26T04:03:46.424Z,74.07
2023-10-26T04:04:51.741Z,74.14
2023-10-26T04:05:54.052Z,74.20
2023-10-26T04:06:57.249Z,74.24
2023-10-26T04:08:02.207Z,74.22
2023-10-26T04:09:05.412Z,74.28
2023-10-26T04:10:08.925Z,74.38
2023-10-26T04:11:17.911Z,74.39
2023-10-26T04:12:20.148Z,74.40
2023-10-26T04:13:23.503Z,74.46
2023-10-26T04:14:25.758Z,74.50
2023-10-26T04:15:30.489Z,74.53
2023-10-26T04:16:32.823Z,74.48
2023-10-26T04:17:36.107Z,74.44
2023-10-26T04:18:38.442Z,74.45
2023-10-26T04:19:41.734Z,74.51
2023-10-26T04:20:44.050Z,74.42
2023-10-26T04:21:47.250Z,74.20
2023-10-26T04:22:49.458Z,74.27
2023-10-26T04:23:52.585Z,73.87
2023-10-26T04:24:54.724Z,74.00
2023-10-26T04:25:56.956Z,73.91
2023-10-26T04:27:00.669Z,73.86
2023-10-26T04:28:02.906Z,74.05
2023-10-26T04:29:08.226Z,74.18
2023-10-26T04:30:11.135Z,74.15
2023-10-26T04:31:16.608Z,74.20
2023-10-26T04:32:18.873Z,74.29
2023-10-26T04:33:22.143Z,74.12
2023-10-26T04:34:24.306Z,73.80
2023-10-26T04:35:27.543Z,73.82
2023-10-26T04:36:29.748Z,73.72
2023-10-26T04:37:33.065Z,73.50
2023-10-26T04:38:35.502Z,73.42
2023-10-26T04:39:38.850Z,73.42
2023-10-26T04:40:42.723Z,73.62
2023-10-26T04:41:45.992Z,73.81
2023-10-26T04:42:48.187Z,73.98
2023-10-26T04:43:51.346Z,73.84
2023-10-26T04:44:53.549Z,73.79
2023-10-26T04:45:56.733Z,73.86
2023-10-26T04:47:00.350Z,73.78
2023-10-26T04:48:04.476Z,73.91
2023-10-26T04:49:06.813Z,74.49
2023-10-26T04:50:11.318Z,74.47
2023-10-26T04:51:13.654Z,74.65
2023-10-26T04:52:19.597Z,74.71
2023-10-26T04:53:21.772Z,74.71
2023-10-26T04:54:25.344Z,74.47
2023-10-26T04:55:31.665Z,74.33
2023-10-26T04:56:35.120Z,74.56
2023-10-26T04:57:37.571Z,74.52
2023-10-26T04:58:40.715Z,74.33
2023-10-26T04:59:42.846Z,73.97
2023-10-26T05:00:46.023Z,73.93
2023-10-26T05:01:48.336Z,74.34
2023-10-26T05:02:52.898Z,74.33
2023-10-26T05:03:55.089Z,73.85
2023-10-26T05:04:58.212Z,74.38
2023-10-26T05:06:00.538Z,74.01
2023-10-26T05:07:04.016Z,74.18
2023-10-26T05:08:07.211Z,74.18
2023-10-26T05:09:09.507Z,73.70
2023-10-26T05:10:12.837Z,74.31
2023-10-26T05:11:15.792Z,74.42
2023-10-26T05:12:19.074Z,74.32
2023-10-26T05:13:21.283Z,74.28
2023-10-26T05:14:24.456Z,74.38
2023-10-26T05:15:26.920Z,74.62
2023-10-26T05:16:30.191Z,74.63
2023-10-26T05:17:32.420Z,74.54
2023-10-26T05:18:36.014Z,74.58
2023-10-26T05:19:39.326Z,74.51
2023-10-26T05:20:41.521Z,74.48
2023-10-26T05:21:44.690Z,74.45
2023-10-26T05:22:46.965Z,74.52
2023-10-26T05:23:50.165Z,74.52
2023-10-26T05:24:52.477Z,74.54
2023-10-26T05:25:55.724Z,74.63
2023-10-26T05:26:58.241Z,74.57
2023-10-26T05:28:01.831Z,74.61
2023-10-26T05:29:04.562Z,74.66
2023-10-26T05:30:09.141Z,74.67
2023-10-26T05:31:11.396Z,74.66
2023-10-26T05:32:15.005Z,74.71
2023-10-26T05:33:17.344Z,74.68
2023-10-26T05:34:22.525Z,74.66
2023-10-26T05:35:25.009Z,74.75
2023-10-26T05:36:27.257Z,74.72
2023-10-26T05:37:30.500Z,74.71
2023-10-26T05:38:32.720Z,74.72
2023-10-26T05:39:35.906Z,74.82
2023-10-26T05:40:38.166Z,74.83
2023-10-26T05:41:41.244Z,74.88
2023-10-26T05:42:43.494Z,74.77
2023-10-26T05:43:46.628Z,74.72
2023-10-26T05:44:48.951Z,74.74
2023-10-26T05:45:52.467Z,74.77
2023-10-26T05:46:54.685Z,74.70
2023-10-26T05:48:00.808Z,74.76
2023-10-26T05:49:03.004Z,74.81
2023-10-26T05:50:08.876Z,74.56
2023-10-26T05:51:11.049Z,74.35
2023-10-26T05:52:14.237Z,74.14
2023-10-26T05:53:16.831Z,74.08
2023-10-26T05:54:22.969Z,73.99
2023-10-26T05:55:26.037Z,73.99
2023-10-26T05:56:28.180Z,74.03
2023-10-26T05:57:34.439Z,74.09
2023-10-26T05:58:37.591Z,74.11
2023-10-26T05:59:41.334Z,73.93
2023-10-26T06:00:47.756Z,73.83
2023-10-26T06:02:06.617Z,74.05
2023-10-26T06:03:08.894Z,73.97
2023-10-26T06:04:12.291Z,74.09
2023-10-26T06:05:16.518Z,73.94
2023-10-26T06:06:32.340Z,74.03
2023-10-26T06:07:34.592Z,73.90
2023-10-26T06:08:37.846Z,74.00
2023-10-26T06:09:39.966Z,74.07
2023-10-26T06:10:43.244Z,74.12
2023-10-26T06:11:45.410Z,74.10
2023-10-26T06:12:48.578Z,74.14
2023-10-26T06:13:50.746Z,74.39
2023-10-26T06:14:53.834Z,74.22
2023-10-26T06:15:56.066Z,74.28
2023-10-26T06:16:59.308Z,74.35
2023-10-26T06:18:01.646Z,74.51
2023-10-26T06:19:04.826Z,74.40
2023-10-26T06:20:08.955Z,74.43
2023-10-26T06:21:14.385Z,74.42
2023-10-26T06:22:16.694Z,74.38
2023-10-26T06:23:19.847Z,74.32
2023-10-26T06:24:22.171Z,74.26
2023-10-26T06:25:26.778Z,74.24
2023-10-26T06:26:29.274Z,74.29
2023-10-26T06:27:32.584Z,74.38
2023-10-26T06:28:34.818Z,74.44
2023-10-26T06:29:38.103Z,74.44
2023-10-26T06:30:40.615Z,74.49
2023-10-26T06:31:43.908Z,74.54
2023-10-26T06:32:46.214Z,74.54
2023-10-26T06:33:49.516Z,74.57
2023-10-26T06:34:51.979Z,74.64
2023-10-26T06:35:55.254Z,74.70
2023-10-26T06:36:58.831Z,74.81
2023-10-26T06:38:01.998Z,74.93
2023-10-26T06:39:04.331Z,74.92
2023-10-26T06:40:08.279Z,74.87
2023-10-26T06:41:11.870Z,74.85
2023-10-26T06:42:14.135Z,74.80
2023-10-26T06:43:17.723Z,74.83
2023-10-26T06:44:20.022Z,74.72
2023-10-26T06:45:23.469Z,74.48
2023-10-26T06:46:25.917Z,74.51
2023-10-26T06:47:29.264Z,74.35
2023-10-26T06:48:31.934Z,74.31
2023-10-26T06:49:35.271Z,74.24
2023-10-26T06:50:37.546Z,74.31
2023-10-26T06:51:40.785Z,74.17
2023-10-26T06:52:45.037Z,74.12
2023-10-26T06:53:48.292Z,73.96
2023-10-26T06:54:50.624Z,73.91
2023-10-26T06:55:53.086Z,73.98
2023-10-26T06:56:57.898Z,73.81
2023-10-26T06:58:00.422Z,73.78
2023-10-26T06:59:03.662Z,73.76
2023-10-26T07:00:08.059Z,73.74
2023-10-26T07:01:19.612Z,73.89
2023-10-26T07:02:23.543Z,73.92
2023-10-26T07:03:26.877Z,73.70
2023-10-26T07:04:29.206Z,73.51
2023-10-26T07:05:32.899Z,73.42
2023-10-26T07:06:35.215Z,73.19
2023-10-26T07:07:38.684Z,73.04
2023-10-26T07:08:42.547Z,72.89
2023-10-26T07:09:45.757Z,72.75
2023-10-26T07:10:48.070Z,72.87
2023-10-26T07:11:51.274Z,72.58
2023-10-26T07:12:53.574Z,72.46
2023-10-26T07:13:56.774Z,72.45
2023-10-26T07:15:00.847Z,72.34
2023-10-26T07:16:05.277Z,72.61
2023-10-26T07:17:07.650Z,72.52
2023-10-26T07:18:10.973Z,72.41
2023-10-26T07:19:13.489Z,72.28
2023-10-26T07:20:16.618Z,72.44
2023-10-26T07:21:20.400Z,72.48
2023-10-26T07:22:23.253Z,72.34
2023-10-26T07:23:27.107Z,72.45
2023-10-26T07:24:31.989Z,72.12
2023-10-26T07:25:37.077Z,72.53
2023-10-26T07:26:39.358Z,72.68
2023-10-26T07:27:42.732Z,72.42
2023-10-26T07:28:44.995Z,72.42
2023-10-26T07:29:48.690Z,72.17
2023-10-26T07:30:52.159Z,71.95
2023-10-26T07:31:56.079Z,71.84
2023-10-26T07:32:58.393Z,71.73
2023-10-26T07:34:01.710Z,71.61
2023-10-26T07:35:04.279Z,71.79
2023-10-26T07:36:09.593Z,71.98
2023-10-26T07:37:11.867Z,72.01
2023-10-26T07:38:35.510Z,71.93
2023-10-26T07:39:46.782Z,71.90
2023-10-26T07:40:51.962Z,71.89
2023-10-26T07:42:06.715Z,71.96
2023-10-26T07:43:12.580Z,71.56
2023-10-26T07:44:14.851Z,71.79
2023-10-26T07:45:18.309Z,71.63
2023-10-26T07:46:21.222Z,71.63
2023-10-26T07:47:25.396Z,71.71
2023-10-26T07:48:27.793Z,71.80
2023-10-26T07:49:31.323Z,71.97
2023-10-26T07:50:33.918Z,72.04
2023-10-26T07:51:36.170Z,71.97
2023-10-26T07:52:39.415Z,72.06
2023-10-26T07:53:41.671Z,71.96
2023-10-26T07:54:46.839Z,71.74
2023-10-26T07:55:49.224Z,71.71
2023-10-26T07:56:52.710Z,71.08
2023-10-26T07:57:55.220Z,71.13
2023-10-26T07:58:59.080Z,70.92
2023-10-26T08:00:02.267Z,71.20
2023-10-26T08:01:10.472Z,70.97
2023-10-26T08:02:12.862Z,70.84
2023-10-26T08:03:16.108Z,71.04
2023-10-26T08:04:18.327Z,71.15
2023-10-26T08:05:21.779Z,71.44
2023-10-26T08:06:25.236Z,71.34
2023-10-26T08:07:30.603Z,71.38
2023-10-26T08:08:33.047Z,71.34
2023-10-26T08:09:36.738Z,71.15
2023-10-26T08:10:40.318Z,70.76
2023-10-26T08:11:43.531Z,70.88
2023-10-26T08:12:45.785Z,70.75
2023-10-26T08:13:48.934Z,70.53
2023-10-26T08:16:06.183Z,70.53
2023-10-26T08:16:42.063Z,70.27
2023-10-26T08:17:43.695Z,70.50
2023-10-26T08:18:47.055Z,70.21
2023-10-26T08:19:53.122Z,70.30
2023-10-26T08:20:56.542Z,70.17
2023-10-26T08:21:58.845Z,70.11
2023-10-26T08:23:04.076Z,69.99
2023-10-26T08:24:06.908Z,70.23
2023-10-26T08:25:10.803Z,70.37
2023-10-26T08:26:14.253Z,70.42
2023-10-26T08:27:17.516Z,70.72
2023-10-26T08:28:19.689Z,70.44
2023-10-26T08:29:28.208Z,70.29
2023-10-26T08:30:31.279Z,70.34
2023-10-26T08:31:36.694Z,70.54
2023-10-26T08:32:39.023Z,70.44
2023-10-26T08:33:42.360Z,70.32
2023-10-26T08:34:45.997Z,70.45
2023-10-26T08:35:52.544Z,70.62
2023-10-26T08:37:11.437Z,70.36
2023-10-26T08:38:16.554Z,70.48
2023-10-26T08:39:19.181Z,70.29
2023-10-26T08:40:22.623Z,70.34
2023-10-26T08:41:26.211Z,70.38
2023-10-26T08:42:29.410Z,70.32
2023-10-26T08:43:34.828Z,70.66
2023-10-26T08:44:39.125Z,70.54
2023-10-26T08:45:42.880Z,70.73
2023-10-26T08:46:46.865Z,70.54
2023-10-26T08:47:50.300Z,70.85
2023-10-26T08:48:56.823Z,71.01
2023-10-26T08:50:15.670Z,70.85
2023-10-26T08:51:20.264Z,70.25
2023-10-26T08:52:23.565Z,70.49
2023-10-26T08:53:26.959Z,70.49
2023-10-26T08:54:29.207Z,70.67
2023-10-26T08:55:32.788Z,70.72
2023-10-26T08:56:36.413Z,70.49
2023-10-26T08:57:48.169Z,70.42
2023-10-26T08:58:53.137Z,70.72
2023-10-26T08:59:56.387Z,70.40
2023-10-26T09:00:59.167Z,70.28
2023-10-26T09:02:02.497Z,70.26
2023-10-26T09:03:07.323Z,70.58
2023-10-26T09:04:11.616Z,70.76
2023-10-26T09:05:14.316Z,70.40
2023-10-26T09:06:17.576Z,70.55
2023-10-26T09:07:26.781Z,70.81
2023-10-26T09:08:32.630Z,70.63
2023-10-26T09:09:44.939Z,70.13
2023-10-26T09:10:48.168Z,70.27
2023-10-26T09:11:51.910Z,70.22
2023-10-26T09:13:01.484Z,70.17
2023-10-26T09:14:16.657Z,69.94
2023-10-26T09:15:19.896Z,69.87
2023-10-26T09:16:36.144Z,69.71
2023-10-26T09:17:39.549Z,69.67
2023-10-26T09:18:49.659Z,69.95
2023-10-26T09:19:51.894Z,69.82
2023-10-26T09:21:06.108Z,69.90
2023-10-26T09:22:10.248Z,69.69
2023-10-26T09:23:28.694Z,69.44
2023-10-26T09:24:31.193Z,69.43
2023-10-26T09:25:34.393Z,69.53
2023-10-26T09:26:40.280Z,69.61
2023-10-26T09:27:47.050Z,69.65
2023-10-26T09:28:53.753Z,69.75
2023-10-26T09:29:57.010Z,69.75
2023-10-26T09:31:01.086Z,69.81
2023-10-26T09:32:04.495Z,69.71
2023-10-26T09:33:22.798Z,69.71
2023-10-26T09:34:26.027Z,69.89
2023-10-26T09:35:29.836Z,69.81
2023-10-26T09:36:32.165Z,69.75
2023-10-26T09:37:51.708Z,69.92
2023-10-26T09:38:54.904Z,70.12
2023-10-26T09:40:14.732Z,69.99
2023-10-26T09:41:20.346Z,69.82
2023-10-26T09:42:26.058Z,69.68
2023-10-26T09:43:29.828Z,69.49
2023-10-26T09:44:32.553Z,69.59
2023-10-26T09:45:35.832Z,69.81
2023-10-26T09:46:38.535Z,69.66
2023-10-26T09:47:42.365Z,69.64
2023-10-26T09:48:45.166Z,69.61
2023-10-26T09:49:49.680Z,69.52
2023-10-26T09:50:53.722Z,69.50
2023-10-26T09:51:57.100Z,69.49
2023-10-26T09:53:00.425Z,69.50
2023-10-26T09:54:05.474Z,69.49
2023-10-26T09:55:10.079Z,69.65
2023-10-26T09:56:19.259Z,69.51
2023-10-26T09:57:28.710Z,69.75
2023-10-26T09:58:40.058Z,69.78
2023-10-26T09:59:42.905Z,69.72
2023-10-26T10:00:46.143Z,69.62
2023-10-26T10:01:48.487Z,69.64
2023-10-26T10:03:13.185Z,69.73
2023-10-26T10:04:15.628Z,69.48
2023-10-26T10:05:43.117Z,69.33
2023-10-26T10:06:51.220Z,69.65
2023-10-26T10:07:54.569Z,69.29
2023-10-26T10:09:00.887Z,68.96
2023-10-26T10:10:07.550Z,69.19
2023-10-26T10:11:18.554Z,69.13
2023-10-26T10:12:34.179Z,69.00
2023-10-26T10:13:41.840Z,68.97
2023-10-26T10:15:15.616Z,69.24
2023-10-26T10:16:54.029Z,68.94
2023-10-26T10:18:06.374Z,68.65
2023-10-26T10:19:19.484Z,68.38
2023-10-26T10:20:28.955Z,68.49
2023-10-26T10:21:36.941Z,68.66
2023-10-26T10:22:48.714Z,68.36
2023-10-26T10:23:51.931Z,68.47
2023-10-26T10:24:54.678Z,68.67
2023-10-26T10:26:05.723Z,68.52
2023-10-26T10:27:17.183Z,68.42
2023-10-26T10:28:19.945Z,68.40
2023-10-26T10:29:24.460Z,68.59
2023-10-26T10:30:30.030Z,68.73
2023-10-26T10:31:43.742Z,68.40
2023-10-26T10:32:50.341Z,68.61
2023-10-26T10:34:12.038Z,68.32
2023-10-26T10:35:25.528Z,68.38
2023-10-26T10:36:28.833Z,68.05
2023-10-26T10:37:31.179Z,68.22
2023-10-26T10:38:34.706Z,68.14
2023-10-26T10:39:36.970Z,68.09
2023-10-26T10:40:40.766Z,68.17
2023-10-26T10:41:43.518Z,68.12
2023-10-26T10:42:49.525Z,68.01
2023-10-26T10:43:52.960Z,68.00
2023-10-26T10:44:57.774Z,68.05
2023-10-26T10:46:12.060Z,68.33
2023-10-26T10:47:14.336Z,68.15
2023-10-26T10:48:17.537Z,68.22
2023-10-26T10:49:25.069Z,68.34
2023-10-26T10:50:31.132Z,67.91
2023-10-26T10:51:35.103Z,67.75
2023-10-26T10:52:38.397Z,67.63
2023-10-26T10:53:40.899Z,67.65
2023-10-26T10:54:59.686Z,67.73
2023-10-26T10:56:05.579Z,67.70
2023-10-26T10:57:09.076Z,67.49
2023-10-26T10:58:11.445Z,67.63
2023-10-26T10:59:21.994Z,67.45
2023-10-26T11:00:26.518Z,67.62
2023-10-26T11:01:31.171Z,67.61
2023-10-26T11:02:33.593Z,67.47
2023-10-26T11:03:36.990Z,67.58
2023-10-26T11:04:59.596Z,67.72
2023-10-26T11:06:06.716Z,67.37
2023-10-26T11:07:08.978Z,67.46
2023-10-26T11:08:12.278Z,67.43
2023-10-26T11:09:26.002Z,67.47
2023-10-26T11:10:29.269Z,67.58
2023-10-26T11:11:32.808Z,67.93
2023-10-26T11:12:36.187Z,67.55
2023-10-26T11:13:38.663Z,67.35
2023-10-26T11:14:50.642Z,67.02
2023-10-26T11:15:54.584Z,66.90
2023-10-26T11:16:58.146Z,67.14
2023-10-26T11:18:01.153Z,67.42
2023-10-26T11:19:05.525Z,67.31
2023-10-26T11:20:34.946Z,67.07
2023-10-26T11:21:38.289Z,67.58
2023-10-26T11:22:40.556Z,67.63
2023-10-26T11:23:43.917Z,67.32
2023-10-26T11:24:46.984Z,67.46
2023-10-26T11:25:50.446Z,67.42
2023-10-26T11:27:09.510Z,67.16
2023-10-26T11:28:12.958Z,66.87
2023-10-26T11:29:18.500Z,66.32
2023-10-26T11:30:21.977Z,66.36
2023-10-26T11:31:42.826Z,66.62
2023-10-26T11:32:46.495Z,66.69
2023-10-26T11:33:48.749Z,66.65
2023-10-26T11:35:06.602Z,66.47
2023-10-26T11:36:10.541Z,66.85
2023-10-26T11:37:16.600Z,66.70
2023-10-26T11:38:18.980Z,66.63
2023-10-26T11:39:22.362Z,66.63
2023-10-26T11:40:30.918Z,66.68
2023-10-26T11:41:35.378Z,66.46
2023-10-26T11:42:51.546Z,66.39
2023-10-26T11:43:55.045Z,66.36
2023-10-26T11:45:00.371Z,66.22
2023-10-26T11:46:05.105Z,66.26
2023-10-26T11:47:08.989Z,66.10
2023-10-26T11:48:12.123Z,65.93
2023-10-26T11:49:14.540Z,66.10
2023-10-26T11:50:22.217Z,65.86
2023-10-26T11:51:24.952Z,65.58
2023-10-26T11:52:28.184Z,65.31
2023-10-26T11:53:30.528Z,65.02
2023-10-26T11:54:34.106Z,64.93
2023-10-26T11:55:36.347Z,64.36
2023-10-26T11:56:39.560Z,63.90
2023-10-26T11:57:41.975Z,63.92
2023-10-26T11:58:45.207Z,63.61
2023-10-26T11:59:47.557Z,63.51
2023-10-26T12:00:50.977Z,63.65
2023-10-26T12:01:53.802Z,63.23
2023-10-26T12:02:59.694Z,62.88
2023-10-26T12:04:02.071Z,62.81
2023-10-26T12:05:05.206Z,62.71
2023-10-26T12:06:08.928Z,62.45
2023-10-26T12:07:11.150Z,62.70
2023-10-26T12:08:14.345Z,63.14
2023-10-26T12:09:16.672Z,63.22
2023-10-26T12:10:22.163Z,62.43
2023-10-26T12:11:24.832Z,62.14
2023-10-26T12:12:28.214Z,61.92
2023-10-26T12:13:30.509Z,62.12
2023-10-26T12:14:33.817Z,62.39
2023-10-26T12:15:37.441Z,62.69
2023-10-26T12:16:41.561Z,62.70
2023-10-26T12:17:46.291Z,62.35
2023-10-26T12:18:49.983Z,62.59
2023-10-26T12:19:53.265Z,62.11
2023-10-26T12:20:55.493Z,61.60
2023-10-26T12:21:59.213Z,61.67
2023-10-26T12:23:01.583Z,61.86
2023-10-26T12:24:05.136Z,61.64
2023-10-26T12:25:09.055Z,61.30
2023-10-26T12:26:12.438Z,61.46
2023-10-26T12:27:17.566Z,61.61
2023-10-26T12:28:25.682Z,62.07
2023-10-26T12:29:30.231Z,61.83
2023-10-26T12:30:34.148Z,61.10
2023-10-26T12:31:36.573Z,61.68
2023-10-26T12:32:39.830Z,62.54
2023-10-26T12:33:42.643Z,61.45
2023-10-26T12:34:47.337Z,63.02
2023-10-26T12:35:50.302Z,61.67
2023-10-26T12:36:53.732Z,59.96
2023-10-26T12:37:56.576Z,58.99
2023-10-26T12:38:59.772Z,58.62
2023-10-26T12:40:02.004Z,59.36
2023-10-26T12:41:05.597Z,59.71
2023-10-26T12:42:07.875Z,59.27
2023-10-26T12:43:11.070Z,60.00
2023-10-26T12:44:13.794Z,59.60
2023-10-26T12:45:18.514Z,59.24
2023-10-26T12:46:22.106Z,60.05
2023-10-26T12:47:24.302Z,59.41
2023-10-26T12:48:27.564Z,57.84
2023-10-26T12:49:29.767Z,58.29
2023-10-26T12:50:33.822Z,57.48
2023-10-26T12:51:39.346Z,58.79
2023-10-26T12:52:42.775Z,56.91
2023-10-26T12:53:46.054Z,55.26
2023-10-26T12:54:48.284Z,56.14
2023-10-26T12:55:51.515Z,55.85
2023-10-26T12:56:53.812Z,55.30
2023-10-26T12:57:58.748Z,55.25
2023-10-26T12:59:01.579Z,56.62
2023-10-26T13:00:05.356Z,54.59
2023-10-26T13:01:07.779Z,54.40
2023-10-26T13:02:11.050Z,53.39
2023-10-26T13:03:13.291Z,54.81
2023-10-26T13:04:16.748Z,53.59
2023-10-26T13:05:19.183Z,53.39
2023-10-26T13:06:23.752Z,52.74
2023-10-26T13:07:28.319Z,51.35
2023-10-26T13:08:31.598Z,50.98
2023-10-26T13:09:33.914Z,50.06
2023-10-26T13:10:37.245Z,49.99
2023-10-26T13:11:39.568Z,50.01
2023-10-26T13:12:43.267Z,50.30
2023-10-26T13:13:45.797Z,50.73
2023-10-26T13:14:51.175Z,51.24
2023-10-26T13:16:00.218Z,51.30
2023-10-26T13:17:02.504Z,51.49
2023-10-26T13:18:05.773Z,51.48
2023-10-26T13:19:08.105Z,51.08
2023-10-26T13:20:12.704Z,51.20
2023-10-26T13:21:15.072Z,50.77
2023-10-26T13:22:19.723Z,49.99
2023-10-26T13:23:21.957Z,49.37
2023-10-26T13:24:25.147Z,49.03
2023-10-26T13:25:27.506Z,48.49
2023-10-26T13:26:30.791Z,48.04
2023-10-26T13:27:33.028Z,48.19
2023-10-26T13:28:36.291Z,48.26
2023-10-26T13:29:38.599Z,48.37
2023-10-26T13:30:41.879Z,47.99
2023-10-26T13:31:44.082Z,47.96
2023-10-26T13:32:47.367Z,48.84
2023-10-26T13:33:49.711Z,49.18
2023-10-26T13:34:52.969Z,48.78
2023-10-26T13:35:55.158Z,48.70
2023-10-26T13:37:00.483Z,47.93
2023-10-26T13:38:04.046Z,47.46
2023-10-26T13:39:07.527Z,47.75
2023-10-26T13:40:10.553Z,47.49
2023-10-26T13:41:13.896Z,47.30
2023-10-26T13:42:16.186Z,47.47
2023-10-26T13:43:19.377Z,47.73
2023-10-26T13:44:21.621Z,48.43
2023-10-26T13:45:25.905Z,48.95
2023-10-26T13:46:29.544Z,46.99
2023-10-26T13:47:32.861Z,47.07